createdAt,value
2022-12-11T00:00:16.580Z,84.14
2022-12-11T00:03:12.733Z,83.02
2022-12-11T00:05:47.892Z,83.11
2022-12-11T00:08:19.651Z,82.54
2022-12-11T00:10:52.392Z,82.88
2022-12-11T00:13:24.156Z,83.03
2022-12-11T00:15:56.004Z,83.17
2022-12-11T00:18:27.673Z,82.75
2022-12-11T00:21:02.786Z,82.48
2022-12-11T00:23:35.228Z,82.86
2022-12-11T00:26:10.690Z,83.07
2022-12-11T00:28:42.852Z,82.76
2022-12-11T00:31:20.391Z,82.91
2022-12-11T00:33:52.615Z,82.62
2022-12-11T00:36:26.734Z,82.16
2022-12-11T00:38:58.393Z,82.11
2022-12-11T00:41:30.164Z,81.02
2022-12-11T00:44:01.732Z,81.70
2022-12-11T00:46:33.471Z,80.39
2022-12-11T00:49:05.540Z,80.13
2022-12-11T00:51:37.592Z,80.76
2022-12-11T00:54:09.279Z,80.97
2022-12-11T00:56:41.144Z,80.30
2022-12-11T00:59:13.629Z,80.46
2022-12-11T01:01:44.074Z,81.29
2022-12-11T01:04:15.862Z,81.04
2022-12-11T01:06:48.777Z,81.62
2022-12-11T01:09:37.704Z,81.32
2022-12-11T01:12:09.492Z,81.10
2022-12-11T01:14:41.165Z,80.82
2022-12-11T01:17:13.123Z,81.11
2022-12-11T01:19:44.914Z,81.62
2022-12-11T01:22:16.569Z,80.71
2022-12-11T01:24:48.541Z,80.67
2022-12-11T01:27:20.230Z,80.33
2022-12-11T01:29:52.471Z,80.66
2022-12-11T01:32:24.470Z,80.89
2022-12-11T01:34:56.270Z,80.39
2022-12-11T01:37:28.166Z,80.60
2022-12-11T01:39:59.922Z,80.57
2022-12-11T01:42:31.747Z,80.51
2022-12-11T01:45:27.810Z,80.56
2022-12-11T01:48:05.865Z,79.99
2022-12-11T01:50:40.461Z,79.66
2022-12-11T01:53:16.167Z,80.03
2022-12-11T01:55:49.782Z,80.01
2022-12-11T01:58:24.578Z,79.79
2022-12-11T02:00:58.126Z,80.08
2022-12-11T02:03:30.555Z,79.87
2022-12-11T02:06:03.675Z,79.34
2022-12-11T02:08:35.802Z,79.70
2022-12-11T02:11:17.661Z,80.67
2022-12-11T02:13:56.941Z,81.25
2022-12-11T02:16:34.684Z,81.78
2022-12-11T02:19:17.713Z,80.39
2022-12-11T02:21:54.085Z,79.54
2022-12-11T02:24:34.023Z,79.92
2022-12-11T02:27:27.841Z,80.07
2022-12-11T02:30:05.584Z,80.19
2022-12-11T02:32:43.956Z,80.54
2022-12-11T02:35:20.430Z,80.49
2022-12-11T02:37:58.153Z,80.28
2022-12-11T02:40:33.636Z,80.88
2022-12-11T02:43:08.530Z,80.52
2022-12-11T02:45:42.566Z,80.57
2022-12-11T02:48:16.297Z,80.80
2022-12-11T02:50:52.311Z,81.45
2022-12-11T02:53:27.634Z,81.44
2022-12-11T02:56:08.029Z,81.41
2022-12-11T02:58:46.976Z,80.48
2022-12-11T03:01:19.008Z,79.88
2022-12-11T03:03:51.183Z,80.22
2022-12-11T03:06:27.677Z,80.55
2022-12-11T03:08:59.703Z,80.20
2022-12-11T03:11:31.597Z,80.14
2022-12-11T03:14:04.608Z,80.68
2022-12-11T03:16:39.429Z,80.67
2022-12-11T03:19:19.306Z,80.35
2022-12-11T03:21:59.459Z,79.83
2022-12-11T03:24:36.206Z,80.16
2022-12-11T03:27:14.741Z,79.67
2022-12-11T03:29:54.916Z,78.77
2022-12-11T03:32:30.344Z,77.96
2022-12-11T03:35:08.060Z,77.17
2022-12-11T03:37:42.376Z,76.09
2022-12-11T03:40:17.410Z,76.37
2022-12-11T03:42:52.497Z,76.93
2022-12-11T03:45:26.164Z,77.52
2022-12-11T03:48:01.686Z,77.47
2022-12-11T03:50:36.665Z,77.62
2022-12-11T03:53:08.853Z,77.47
2022-12-11T03:55:41.517Z,76.79
2022-12-11T03:58:11.825Z,75.88
2022-12-11T04:00:43.477Z,76.63
2022-12-11T04:03:15.973Z,76.76
2022-12-11T04:05:47.185Z,77.04
2022-12-11T04:08:20.803Z,77.49
2022-12-11T04:11:14.015Z,77.06
2022-12-11T04:13:45.769Z,77.60
2022-12-11T04:16:17.503Z,76.55
2022-12-11T04:19:06.677Z,76.18
2022-12-11T04:21:55.891Z,75.82
2022-12-11T04:24:27.617Z,75.23
2022-12-11T04:26:59.747Z,75.65
2022-12-11T04:29:31.418Z,75.90
2022-12-11T04:32:03.059Z,75.77
2022-12-11T04:34:34.676Z,76.35
2022-12-11T04:37:06.837Z,76.45
2022-12-11T04:39:39.105Z,77.52
2022-12-11T04:42:11.013Z,78.35
2022-12-11T04:44:42.826Z,78.85
2022-12-11T04:47:14.668Z,78.36
2022-12-11T04:49:46.379Z,77.51
2022-12-11T04:52:18.181Z,77.03
2022-12-11T04:54:51.465Z,76.32
2022-12-11T04:57:23.312Z,76.70
2022-12-11T04:59:55.114Z,76.01
2022-12-11T05:02:27.085Z,75.72
2022-12-11T05:04:58.931Z,74.92
2022-12-11T05:07:30.775Z,74.61
2022-12-11T05:10:03.054Z,75.14
2022-12-11T05:12:35.579Z,74.45
2022-12-11T05:15:08.682Z,74.42
2022-12-11T05:17:41.048Z,74.84
2022-12-11T05:20:13.972Z,74.26
2022-12-11T05:22:45.612Z,75.06
2022-12-11T05:25:17.664Z,75.19
2022-12-11T05:27:49.474Z,75.18
2022-12-11T05:30:21.391Z,74.89
2022-12-11T05:32:53.109Z,74.76
2022-12-11T05:35:25.151Z,75.01
2022-12-11T05:37:58.532Z,74.44
2022-12-11T05:40:30.614Z,74.00
2022-12-11T05:43:02.244Z,74.19
2022-12-11T05:45:34.198Z,74.46
2022-12-11T05:48:06.352Z,75.22
2022-12-11T05:50:38.059Z,75.49
2022-12-11T05:53:12.262Z,75.90
2022-12-11T05:55:44.180Z,76.04
2022-12-11T05:58:16.056Z,76.38
2022-12-11T06:00:47.914Z,76.18
2022-12-11T06:03:19.763Z,76.61
2022-12-11T06:05:51.512Z,76.13
2022-12-11T06:08:23.461Z,75.84
2022-12-11T06:10:55.532Z,76.28
2022-12-11T06:13:27.590Z,76.18
2022-12-11T06:16:03.652Z,76.27
2022-12-11T06:18:38.498Z,76.73
2022-12-11T06:21:18.142Z,77.08
2022-12-11T06:23:51.356Z,77.44
2022-12-11T06:26:23.658Z,77.31
2022-12-11T06:28:55.697Z,76.87
2022-12-11T06:31:27.486Z,77.53
2022-12-11T06:33:59.229Z,78.60
2022-12-11T06:36:30.979Z,78.78
2022-12-11T06:39:02.938Z,78.54
2022-12-11T06:41:34.843Z,78.77
2022-12-11T06:44:06.603Z,79.42
2022-12-11T06:46:38.188Z,79.15
2022-12-11T06:49:10.140Z,78.92
2022-12-11T06:51:42.111Z,78.61
2022-12-11T06:54:13.924Z,79.20
2022-12-11T06:56:45.560Z,79.05
2022-12-11T06:59:17.181Z,78.94
2022-12-11T07:01:49.401Z,78.34
2022-12-11T07:04:24.547Z,78.15
2022-12-11T07:06:56.191Z,78.03
2022-12-11T07:09:28.231Z,78.47
2022-12-11T07:12:00.487Z,79.01
2022-12-11T07:14:32.234Z,79.29
2022-12-11T07:17:03.943Z,78.97
2022-12-11T07:19:37.867Z,78.59
2022-12-11T07:22:09.485Z,78.28
2022-12-11T07:24:41.265Z,78.38
2022-12-11T07:27:13.005Z,78.42
2022-12-11T07:29:44.961Z,78.38
2022-12-11T07:32:17.029Z,78.25
2022-12-11T07:34:51.975Z,77.76
2022-12-11T07:37:23.969Z,78.54
2022-12-11T07:39:55.908Z,79.12
2022-12-11T07:42:27.819Z,79.19
2022-12-11T07:44:59.412Z,79.38
2022-12-11T07:47:31.053Z,78.68
2022-12-11T07:50:02.894Z,77.64
2022-12-11T07:52:35.393Z,77.77
2022-12-11T07:55:08.256Z,77.71
2022-12-11T07:57:40.141Z,75.81
2022-12-11T08:00:13.333Z,75.29
2022-12-11T08:02:45.150Z,75.27
2022-12-11T08:05:17.062Z,74.86
2022-12-11T08:07:48.832Z,74.18
2022-12-11T08:10:21.475Z,73.28
2022-12-11T08:12:53.427Z,73.39
2022-12-11T08:15:25.051Z,74.40
2022-12-11T08:17:56.756Z,74.53
2022-12-11T08:20:28.584Z,73.95
2022-12-11T08:23:00.290Z,73.99
2022-12-11T08:25:31.982Z,74.18
2022-12-11T08:28:04.065Z,74.15
2022-12-11T08:30:39.934Z,74.32
2022-12-11T08:33:11.887Z,74.90
2022-12-11T08:35:46.346Z,75.23
2022-12-11T08:38:23.667Z,75.57
2022-12-11T08:40:57.064Z,75.69
2022-12-11T08:43:29.468Z,74.88
2022-12-11T08:46:01.833Z,74.38
2022-12-11T08:48:33.731Z,74.84
2022-12-11T08:51:08.283Z,74.70
2022-12-11T08:53:40.074Z,74.52
2022-12-11T08:56:14.474Z,74.16
2022-12-11T08:58:47.243Z,74.56
2022-12-11T09:01:19.209Z,74.68
2022-12-11T09:03:53.166Z,74.15
2022-12-11T09:06:27.644Z,74.12
2022-12-11T09:09:02.218Z,74.57
2022-12-11T09:11:35.921Z,74.92
2022-12-11T09:14:08.979Z,74.99
2022-12-11T09:16:41.904Z,74.20
2022-12-11T09:19:17.868Z,74.17
2022-12-11T09:21:53.503Z,74.75
2022-12-11T09:24:25.371Z,74.58
2022-12-11T09:26:57.383Z,74.19
2022-12-11T09:29:29.028Z,73.87
2022-12-11T09:32:00.903Z,74.16
2022-12-11T09:34:33.789Z,73.82
2022-12-11T09:37:05.860Z,73.58
2022-12-11T09:39:37.676Z,74.22
2022-12-11T09:42:15.794Z,74.56
2022-12-11T09:44:51.617Z,75.04
2022-12-11T09:47:35.509Z,74.69
2022-12-11T09:50:16.728Z,75.36
2022-12-11T09:53:00.887Z,75.22
2022-12-11T09:55:41.708Z,75.13
2022-12-11T09:58:26.707Z,74.97
2022-12-11T10:01:06.916Z,75.09
2022-12-11T10:03:54.489Z,75.61
2022-12-11T10:06:32.811Z,76.00
2022-12-11T10:09:16.208Z,76.48
2022-12-11T10:11:57.887Z,76.15
2022-12-11T10:14:43.216Z,75.62
2022-12-11T10:17:21.269Z,76.00
2022-12-11T10:19:53.471Z,76.13
2022-12-11T10:22:30.620Z,75.63
2022-12-11T10:25:12.914Z,76.43
2022-12-11T10:27:45.419Z,76.84
2022-12-11T10:30:21.275Z,76.84
2022-12-11T10:33:03.484Z,76.68
2022-12-11T10:35:40.777Z,76.85
2022-12-11T10:38:22.635Z,77.12
2022-12-11T10:40:56.926Z,77.05
2022-12-11T10:43:41.604Z,76.26
2022-12-11T10:46:19.322Z,76.35
2022-12-11T10:48:55.020Z,76.25
2022-12-11T10:51:35.804Z,75.17
2022-12-11T10:54:18.414Z,74.81
2022-12-11T10:56:51.487Z,75.47
2022-12-11T10:59:26.748Z,75.40
2022-12-11T11:01:59.915Z,75.24
2022-12-11T11:04:34.937Z,75.06
2022-12-11T11:07:14.574Z,74.57
2022-12-11T11:09:47.032Z,75.62
2022-12-11T11:12:24.647Z,75.95
2022-12-11T11:15:05.389Z,76.33
2022-12-11T11:17:52.960Z,76.39
2022-12-11T11:20:29.499Z,76.13
2022-12-11T11:23:03.780Z,76.00
2022-12-11T11:25:36.491Z,75.34
2022-12-11T11:28:16.775Z,75.62
2022-12-11T11:30:59.889Z,75.27
2022-12-11T11:33:33.950Z,74.99
2022-12-11T11:36:08.263Z,75.47
2022-12-11T11:38:45.068Z,75.80
2022-12-11T11:41:23.092Z,75.56
2022-12-11T11:43:59.431Z,75.30
2022-12-11T11:46:36.914Z,75.08
2022-12-11T11:49:16.612Z,75.28
2022-12-11T11:51:55.091Z,75.53
2022-12-11T11:54:32.534Z,74.64
2022-12-11T11:57:23.555Z,75.05
2022-12-11T11:59:59.261Z,74.05
2022-12-11T12:02:31.270Z,73.10
2022-12-11T12:05:03.467Z,72.53
2022-12-11T12:07:44.894Z,71.95
2022-12-11T12:10:23.504Z,72.45
2022-12-11T12:13:02.998Z,72.90
2022-12-11T12:15:44.869Z,72.81
2022-12-11T12:18:25.474Z,72.85
2022-12-11T12:21:07.465Z,71.81
2022-12-11T12:23:57.546Z,71.93
2022-12-11T12:26:32.415Z,72.25
2022-12-11T12:29:17.461Z,72.10
2022-12-11T12:32:01.512Z,71.24
2022-12-11T12:34:51.825Z,71.75
2022-12-11T12:37:47.270Z,71.14
2022-12-11T12:40:27.847Z,71.17
2022-12-11T12:43:06.286Z,71.54
2022-12-11T12:45:46.569Z,72.14
2022-12-11T12:48:18.923Z,71.66
2022-12-11T12:50:52.123Z,71.32
2022-12-11T12:53:28.747Z,71.53
2022-12-11T12:56:02.838Z,71.76
2022-12-11T12:58:44.762Z,72.12
2022-12-11T13:01:21.502Z,72.45
2022-12-11T13:03:58.407Z,72.41
2022-12-11T13:06:37.840Z,72.78
2022-12-11T13:09:19.669Z,72.62
2022-12-11T13:11:56.646Z,72.53
2022-12-11T13:14:32.509Z,72.81
2022-12-11T13:17:36.291Z,73.77
2022-12-11T13:20:17.889Z,72.68
2022-12-11T13:22:57.559Z,72.86
2022-12-11T13:25:46.151Z,73.14
2022-12-11T13:28:27.327Z,73.21
2022-12-11T13:31:09.217Z,73.85
2022-12-11T13:33:48.086Z,74.20
2022-12-11T13:36:34.929Z,74.38
2022-12-11T13:39:10.844Z,74.30
2022-12-11T13:41:45.606Z,74.64
2022-12-11T13:44:21.104Z,74.34
2022-12-11T13:46:54.497Z,74.86
2022-12-11T13:49:30.109Z,75.45
2022-12-11T13:52:02.808Z,75.32
2022-12-11T13:54:37.226Z,75.16
2022-12-11T13:57:20.938Z,75.94
2022-12-11T13:59:54.712Z,76.19
2022-12-11T14:02:29.377Z,76.28
2022-12-11T14:05:09.355Z,76.40
2022-12-11T14:07:45.334Z,76.35
2022-12-11T14:10:20.997Z,76.75
2022-12-11T14:12:57.565Z,77.13
2022-12-11T14:15:32.216Z,77.25
2022-12-11T14:18:06.029Z,77.20
2022-12-11T14:20:38.195Z,77.37
2022-12-11T14:23:17.670Z,77.70
2022-12-11T14:25:57.470Z,77.87
2022-12-11T14:28:31.913Z,77.99
2022-12-11T14:31:06.089Z,78.67
2022-12-11T14:33:42.075Z,78.60
2022-12-11T14:36:15.415Z,79.12
2022-12-11T14:38:50.755Z,79.34
2022-12-11T14:41:26.079Z,79.16
2022-12-11T14:44:01.525Z,79.01
2022-12-11T14:46:39.737Z,79.52
2022-12-11T14:49:19.058Z,79.72
2022-12-11T14:51:51.842Z,79.87
2022-12-11T14:54:32.614Z,79.39
2022-12-11T14:57:06.935Z,79.45
2022-12-11T14:59:45.433Z,79.61
2022-12-11T15:02:27.666Z,80.22
2022-12-11T15:05:12.450Z,80.47
2022-12-11T15:07:54.116Z,80.14
2022-12-11T15:10:31.220Z,80.53
2022-12-11T15:13:03.450Z,80.84
2022-12-11T15:15:40.141Z,80.79
2022-12-11T15:18:21.887Z,80.50
2022-12-11T15:20:57.691Z,80.91
2022-12-11T15:23:30.096Z,81.66
2022-12-11T15:26:03.068Z,81.97
2022-12-11T15:28:36.316Z,82.18
2022-12-11T15:31:23.512Z,81.66
2022-12-11T15:33:55.714Z,81.79
2022-12-11T15:36:34.781Z,81.90
2022-12-11T15:39:08.568Z,82.53
2022-12-11T15:41:42.526Z,83.00
2022-12-11T15:44:21.105Z,82.54
2022-12-11T15:46:52.754Z,82.53
2022-12-11T15:49:24.621Z,82.83
2022-12-11T15:51:56.284Z,83.21
2022-12-11T15:54:27.982Z,83.19
2022-12-11T15:57:00.975Z,82.70
2022-12-11T15:59:33.515Z,83.17
2022-12-11T16:02:06.117Z,83.54
2022-12-11T16:04:38.424Z,83.47
2022-12-11T16:07:17.190Z,83.45
2022-12-11T16:09:49.536Z,84.04
2022-12-11T16:12:21.551Z,84.52
2022-12-11T16:14:53.370Z,84.71
2022-12-11T16:17:25.029Z,84.96
2022-12-11T16:19:56.878Z,85.42
2022-12-11T16:22:28.672Z,85.18
2022-12-11T16:25:00.275Z,85.24
2022-12-11T16:27:31.995Z,85.99
2022-12-11T16:30:05.263Z,86.11
2022-12-11T16:32:37.228Z,86.81
2022-12-11T16:35:11.368Z,86.83
2022-12-11T16:37:43.495Z,86.37
2022-12-11T16:40:15.688Z,86.89
2022-12-11T16:42:49.231Z,86.80
2022-12-11T16:45:23.171Z,87.07
2022-12-11T16:47:55.441Z,87.27
2022-12-11T16:50:27.272Z,87.51
2022-12-11T16:52:59.509Z,87.28
2022-12-11T16:55:31.664Z,87.33
2022-12-11T16:58:03.660Z,87.29
2022-12-11T17:00:35.323Z,87.75
2022-12-11T17:03:07.331Z,87.38
2022-12-11T17:05:41.551Z,87.28
2022-12-11T17:08:13.947Z,87.55
2022-12-11T17:10:45.633Z,87.79
2022-12-11T17:13:17.390Z,88.02
2022-12-11T17:15:49.240Z,88.26
2022-12-11T17:18:20.942Z,88.02
2022-12-11T17:20:53.212Z,87.53
2022-12-11T17:23:26.030Z,87.74
2022-12-11T17:25:56.157Z,87.75
2022-12-11T17:28:28.103Z,87.67
2022-12-11T17:31:00.154Z,87.36
2022-12-11T17:33:32.240Z,87.28
2022-12-11T17:36:06.610Z,87.21
2022-12-11T17:38:38.327Z,87.25
2022-12-11T17:41:15.470Z,87.55
2022-12-11T17:43:53.253Z,87.50
2022-12-11T17:46:24.900Z,87.25
2022-12-11T17:48:59.362Z,87.09
2022-12-11T17:51:31.179Z,87.17
2022-12-11T17:54:03.058Z,87.44
2022-12-11T17:56:36.205Z,87.42
2022-12-11T17:59:07.936Z,87.33
2022-12-11T18:01:39.632Z,87.88
2022-12-11T18:04:11.864Z,88.07
2022-12-11T18:06:43.887Z,88.19
2022-12-11T18:09:15.588Z,88.32
2022-12-11T18:11:47.481Z,88.32
2022-12-11T18:14:19.192Z,88.96
2022-12-11T18:16:52.484Z,89.04
2022-12-11T18:19:26.831Z,88.47
2022-12-11T18:21:59.345Z,88.49
2022-12-11T18:24:31.859Z,88.55
2022-12-11T18:27:04.220Z,88.72
2022-12-11T18:29:36.143Z,89.40
2022-12-11T18:32:08.063Z,89.16
2022-12-11T18:34:39.905Z,88.42
2022-12-11T18:37:12.024Z,88.80
2022-12-11T18:39:43.712Z,88.84
2022-12-11T18:45:08.571Z,89.15
2022-12-11T18:47:40.328Z,89.08
2022-12-11T18:50:12.065Z,88.84
2022-12-11T18:52:43.880Z,88.89
2022-12-11T18:55:16.092Z,89.30
2022-12-11T18:57:48.033Z,89.77
2022-12-11T19:00:22.227Z,89.75
2022-12-11T19:02:54.084Z,90.09
2022-12-11T19:05:26.667Z,89.51
2022-12-11T19:07:58.783Z,89.48
2022-12-11T19:10:30.818Z,89.50
2022-12-11T19:13:03.067Z,89.56
2022-12-11T19:15:38.323Z,89.99
2022-12-11T19:18:10.971Z,90.28
2022-12-11T19:20:57.674Z,90.01
2022-12-11T19:23:35.406Z,90.27
2022-12-11T19:26:10.474Z,90.04
2022-12-11T19:28:42.269Z,90.19
2022-12-11T19:31:16.285Z,90.10
2022-12-11T19:33:48.736Z,90.15
2022-12-11T19:36:23.460Z,90.04
2022-12-11T19:39:01.376Z,90.21
2022-12-11T19:41:34.748Z,90.03
2022-12-11T19:44:07.816Z,90.02
2022-12-11T19:46:40.617Z,89.71
2022-12-11T19:49:11.486Z,89.38
2022-12-11T19:51:44.876Z,89.70
2022-12-11T19:54:18.902Z,89.62
2022-12-11T19:56:51.633Z,89.24
2022-12-11T19:59:23.600Z,89.70
2022-12-11T20:01:55.842Z,89.77
2022-12-11T20:04:29.514Z,89.91
2022-12-11T20:07:01.760Z,89.64
2022-12-11T20:09:35.135Z,89.87
2022-12-11T20:12:10.497Z,90.18
2022-12-11T20:14:42.785Z,90.55
2022-12-11T20:17:15.406Z,90.81
2022-12-11T20:19:48.503Z,90.51
2022-12-11T20:22:22.824Z,90.25
2022-12-11T20:24:55.235Z,90.34
2022-12-11T20:27:28.472Z,90.31
2022-12-11T20:29:59.071Z,90.24
2022-12-11T20:32:31.991Z,90.18
2022-12-11T20:35:04.008Z,89.90
2022-12-11T20:37:37.414Z,90.08
2022-12-11T20:40:11.696Z,89.97
2022-12-11T20:42:43.580Z,89.43
2022-12-11T20:45:16.034Z,89.50
2022-12-11T20:47:50.732Z,89.51
2022-12-11T20:50:23.219Z,89.54
2022-12-11T20:52:54.097Z,89.94
2022-12-11T20:55:26.669Z,90.71
2022-12-11T20:58:00.463Z,91.13
2022-12-11T21:00:33.015Z,90.88
2022-12-11T21:03:05.583Z,90.99
2022-12-11T21:05:44.725Z,90.81
2022-12-11T21:08:18.490Z,90.74
2022-12-11T21:10:52.307Z,90.61
2022-12-11T21:13:24.676Z,90.54
2022-12-11T21:15:56.806Z,90.87
2022-12-11T21:18:29.676Z,90.86
2022-12-11T21:21:03.566Z,91.08
2022-12-11T21:23:37.684Z,90.82
2022-12-11T21:26:12.073Z,90.57
2022-12-11T21:28:45.237Z,90.66
2022-12-11T21:31:20.224Z,90.94
2022-12-11T21:33:52.564Z,91.16
2022-12-11T21:36:25.464Z,91.11
2022-12-11T21:38:59.553Z,90.60
2022-12-11T21:41:33.031Z,91.04
2022-12-11T21:46:59.038Z,90.99
2022-12-11T21:49:31.798Z,90.43
2022-12-11T21:52:03.492Z,90.93
2022-12-11T21:54:35.422Z,90.65
2022-12-11T21:57:08.199Z,90.81
2022-12-11T21:59:40.975Z,91.02
2022-12-11T22:02:13.393Z,91.37
2022-12-11T22:04:47.420Z,91.22
2022-12-11T22:07:20.613Z,91.37
2022-12-11T22:09:52.464Z,91.87
2022-12-11T22:12:27.957Z,91.59
2022-12-11T22:14:59.659Z,91.44
2022-12-11T22:17:32.140Z,91.09
2022-12-11T22:20:04.192Z,91.53
2022-12-11T22:22:36.061Z,91.59
2022-12-11T22:25:10.253Z,92.44
2022-12-11T22:27:42.733Z,92.92
2022-12-11T22:30:15.498Z,92.75
2022-12-11T22:32:47.267Z,93.15
2022-12-11T22:35:21.853Z,93.17
2022-12-11T22:37:55.952Z,94.13
2022-12-11T22:40:27.869Z,94.31
2022-12-11T22:42:59.920Z,94.63
2022-12-11T22:45:31.533Z,94.95
2022-12-11T22:48:03.384Z,94.27
2022-12-11T22:50:35.302Z,94.08
2022-12-11T22:53:07.418Z,93.91
2022-12-11T22:55:41.600Z,93.80
2022-12-11T22:58:16.115Z,93.84
2022-12-11T23:00:52.222Z,94.15
2022-12-11T23:03:24.042Z,94.02
2022-12-11T23:05:56.082Z,94.22
2022-12-11T23:08:28.328Z,93.78
2022-12-11T23:11:00.425Z,93.88
2022-12-11T23:13:32.971Z,94.14
2022-12-11T23:16:04.892Z,93.95
2022-12-11T23:18:36.627Z,95.16
2022-12-11T23:21:12.534Z,95.05
2022-12-11T23:23:44.531Z,94.34
2022-12-11T23:26:18.540Z,94.20
2022-12-11T23:28:50.839Z,93.66
2022-12-11T23:31:22.848Z,93.92
2022-12-11T23:33:55.396Z,93.82
2022-12-11T23:36:28.154Z,93.97
2022-12-11T23:38:59.921Z,94.59
2022-12-11T23:41:31.917Z,95.43
2022-12-11T23:44:04.546Z,95.73
2022-12-11T23:46:36.349Z,96.38
2022-12-11T23:49:08.347Z,96.59
2022-12-11T23:51:40.339Z,96.28
2022-12-11T23:54:12.345Z,97.04
2022-12-11T23:56:44.008Z,97.43
2022-12-11T23:59:16.869Z,97.34
